Time;durP1;ratioP1;P1;durP2;ratioP2;P2;SDS_P1;SDS_P2;PMS_P1;PMS_P2;Temp;Humidity;BMP_temperature;BMP_pressure;BME280_temperature;BME280_humidity;BME280_pressure;Samples;Min_cycle;Max_cycle;Signal;HPM_P1;HPM_P2
2022/11/25 00:01:41;;;;;;;3.40;2.33;;;7.60;99.90;;;;;;5054318;28;20029;-72
2022/11/25 00:04:07;;;;;;;5.22;2.40;;;7.70;99.90;;;;;;5054032;28;20061;-73
2022/11/25 00:06:34;;;;;;;5.80;2.55;;;7.60;99.90;;;;;;5053302;28;20033;-74
2022/11/25 00:09:08;;;;;;;10.40;2.95;;;7.60;99.90;;;;;;5053659;28;20029;-73
2022/11/25 00:11:36;;;;;;;4.55;2.83;;;7.60;99.90;;;;;;5053650;28;20104;-73
2022/11/25 00:14:02;;;;;;;7.13;3.03;;;7.60;99.90;;;;;;5054360;28;20025;-74
2022/11/25 00:16:28;;;;;;;6.90;2.85;;;7.60;99.90;;;;;;5052310;28;20480;-74
2022/11/25 00:18:55;;;;;;;5.75;3.00;;;7.60;99.90;;;;;;5054048;28;20068;-73
2022/11/25 00:21:23;;;;;;;6.13;2.67;;;7.60;99.90;;;;;;5053542;28;20029;-74
2022/11/25 00:23:52;;;;;;;6.13;2.58;;;7.60;99.90;;;;;;5053871;28;20041;-74
2022/11/25 00:26:18;;;;;;;6.70;2.90;;;7.60;99.90;;;;;;5053116;28;20037;-75
2022/11/25 00:28:45;;;;;;;4.32;2.75;;;7.60;99.90;;;;;;5053586;28;20479;-74
2022/11/25 00:31:17;;;;;;;5.90;2.50;;;7.60;99.90;;;;;;5054019;28;20028;-74
2022/11/25 00:33:43;;;;;;;6.63;2.42;;;7.60;99.90;;;;;;5053980;28;20032;-74
2022/11/25 00:36:30;;;;;;;4.57;2.90;;;7.70;99.90;;;;;;5053291;28;20045;-74
2022/11/25 00:39:03;;;;;;;4.15;2.75;;;7.60;99.90;;;;;;5050103;28;20520;-75
2022/11/25 00:44:34;;;;;;;4.32;2.75;;;7.60;99.90;;;;;;5053898;28;20079;-73
2022/11/25 00:47:11;;;;;;;4.35;2.22;;;7.70;99.90;;;;;;5053467;28;20037;-73
2022/11/25 00:49:38;;;;;;;6.88;2.70;;;7.70;99.90;;;;;;5052601;28;20112;-72
2022/11/25 00:52:05;;;;;;;5.75;2.70;;;7.70;99.90;;;;;;5053127;28;20387;-72
2022/11/25 00:54:30;;;;;;;3.28;2.25;;;7.70;99.90;;;;;;5053039;28;20021;-72
2022/11/25 00:56:57;;;;;;;5.82;2.55;;;7.80;99.90;;;;;;5053324;28;20033;-73
2022/11/25 00:59:22;;;;;;;6.80;2.78;;;7.80;99.90;;;;;;5052637;28;20449;-73
2022/11/25 01:01:48;;;;;;;5.97;2.53;;;7.70;99.90;;;;;;5053238;28;20032;-72
2022/11/25 01:04:14;;;;;;;5.00;2.90;;;7.80;99.90;;;;;;5053229;28;20420;-72
2022/11/25 01:06:40;;;;;;;6.22;2.70;;;7.80;99.90;;;;;;5052802;28;20116;-72
2022/11/25 01:09:07;;;;;;;4.72;2.83;;;7.80;99.90;;;;;;5053133;28;20052;-72
2022/11/25 01:11:33;;;;;;;6.70;2.90;;;7.80;99.90;;;;;;5051097;28;20029;-74
2022/11/25 01:13:59;;;;;;;5.10;2.80;;;7.80;99.90;;;;;;5053077;28;20024;-73
2022/11/25 01:16:25;;;;;;;5.47;2.80;;;7.80;99.90;;;;;;5052316;28;20347;-74
2022/11/25 01:18:51;;;;;;;7.40;2.80;;;7.80;99.90;;;;;;5052601;28;20056;-73
2022/11/25 01:21:22;;;;;;;7.13;3.00;;;7.70;99.90;;;;;;5052520;28;20499;-73
2022/11/25 01:23:48;;;;;;;3.75;2.38;;;7.80;99.90;;;;;;5053039;28;20032;-73
2022/11/25 01:26:17;;;;;;;5.90;3.00;;;7.80;99.90;;;;;;5052637;28;20339;-73
2022/11/25 01:28:43;;;;;;;8.07;2.75;;;7.80;99.90;;;;;;5051873;28;20094;-73
2022/11/25 01:31:17;;;;;;;4.53;2.95;;;7.80;99.90;;;;;;5050770;28;20033;-73
2022/11/25 01:33:44;;;;;;;7.15;2.90;;;7.80;99.90;;;;;;5051531;28;20017;-74
2022/11/25 01:36:13;;;;;;;4.60;2.70;;;7.80;99.90;;;;;;5051419;28;20049;-73
2022/11/25 01:38:39;;;;;;;5.10;2.80;;;7.80;99.90;;;;;;5052155;28;20021;-74
2022/11/25 01:41:06;;;;;;;5.47;2.72;;;7.80;99.90;;;;;;5051206;28;20092;-73
2022/11/25 01:43:32;;;;;;;5.07;3.03;;;7.80;99.90;;;;;;5051803;28;20032;-73
2022/11/25 01:46:04;;;;;;;7.40;2.80;;;7.80;99.90;;;;;;5052386;28;20053;-74
2022/11/25 01:48:43;;;;;;;4.93;3.22;;;7.70;99.90;;;;;;5051901;28;20033;-74
2022/11/25 01:51:22;;;;;;;8.95;3.63;;;7.80;99.90;;;;;;5049139;28;20116;-74
2022/11/25 01:53:49;;;;;;;5.20;3.08;;;7.70;99.90;;;;;;5050086;28;20025;-73
2022/11/25 01:56:15;;;;;;;6.10;3.00;;;7.70;99.90;;;;;;5052291;28;20033;-74
2022/11/25 01:58:43;;;;;;;6.10;3.38;;;7.70;99.90;;;;;;5052270;28;20026;-73
2022/11/25 02:01:09;;;;;;;6.38;3.10;;;7.60;99.90;;;;;;5052542;28;20029;-73
2022/11/25 02:03:41;;;;;;;4.38;2.75;;;7.60;99.90;;;;;;5052386;28;20454;-74
2022/11/25 02:06:07;;;;;;;6.32;3.58;;;7.60;99.90;;;;;;5052319;28;20025;-73
2022/11/25 02:08:32;;;;;;;4.70;3.20;;;7.50;99.90;;;;;;5052032;28;20024;-73
2022/11/25 02:11:00;;;;;;;5.55;3.20;;;7.50;99.90;;;;;;5052468;28;20354;-73
2022/11/25 02:13:27;;;;;;;5.28;3.17;;;7.50;99.90;;;;;;5051901;28;20132;-71
2022/11/25 02:15:52;;;;;;;10.52;3.58;;;7.50;99.90;;;;;;5052413;28;20037;-74
2022/11/25 02:18:18;;;;;;;5.25;2.70;;;7.50;99.90;;;;;;5052217;28;20032;-73
2022/11/25 02:20:44;;;;;;;4.35;2.55;;;7.50;99.90;;;;;;5051842;28;20343;-74
2022/11/25 02:23:27;;;;;;;6.72;2.97;;;7.50;99.90;;;;;;5051455;28;20037;-74
2022/11/25 02:25:53;;;;;;;5.32;3.40;;;7.50;99.90;;;;;;5050847;28;20104;-74
2022/11/25 02:28:25;;;;;;;9.93;3.38;;;7.50;99.90;;;;;;5052158;28;20124;-72
2022/11/25 02:30:52;;;;;;;7.43;3.40;;;7.50;99.90;;;;;;5051732;28;20465;-72
2022/11/25 02:33:19;;;;;;;6.25;3.08;;;7.50;99.90;;;;;;5051634;28;20096;-73
2022/11/25 02:36:06;;;;;;;10.55;3.28;;;7.50;99.90;;;;;;5050658;28;20079;-73
2022/11/25 02:38:32;;;;;;;7.45;3.20;;;7.50;99.90;;;;;;5051144;28;20029;-72
2022/11/25 02:41:12;;;;;;;7.15;3.42;;;7.40;99.90;;;;;;5051576;28;20027;-73
2022/11/25 02:43:39;;;;;;;5.80;2.90;;;7.40;99.90;;;;;;5031128;28;20442;-73
2022/11/25 02:46:09;;;;;;;10.27;3.42;;;7.40;99.90;;;;;;5031718;28;20411;-75
2022/11/25 02:48:37;;;;;;;7.07;3.10;;;7.40;99.90;;;;;;5031329;28;20409;-72
2022/11/25 02:51:04;;;;;;;4.90;3.08;;;7.30;99.90;;;;;;5031820;28;20096;-71
2022/11/25 02:53:30;;;;;;;7.47;2.90;;;7.30;99.90;;;;;;5031491;28;20029;-73
2022/11/25 02:55:55;;;;;;;6.53;3.13;;;7.30;99.90;;;;;;5031621;28;20045;-73
2022/11/25 02:58:21;;;;;;;9.20;3.40;;;7.20;99.90;;;;;;5033603;28;20449;-73
2022/11/25 03:00:47;;;;;;;5.18;3.00;;;7.20;99.90;;;;;;5049872;28;20067;-73
2022/11/25 03:03:13;;;;;;;8.05;3.15;;;7.20;99.90;;;;;;5050452;28;20045;-73
2022/11/25 03:05:39;;;;;;;9.05;3.70;;;7.20;99.90;;;;;;5050658;28;20500;-72
2022/11/25 03:08:06;;;;;;;6.72;3.10;;;7.20;99.90;;;;;;5051133;28;20025;-72
2022/11/25 03:10:32;;;;;;;8.07;3.28;;;7.20;99.90;;;;;;5050927;28;20029;-74
2022/11/25 03:12:57;;;;;;;6.28;3.25;;;7.10;99.90;;;;;;5051589;28;20021;-73
2022/11/25 03:15:23;;;;;;;4.90;2.88;;;7.10;99.90;;;;;;5051205;28;20064;-74
2022/11/25 03:17:49;;;;;;;5.43;3.35;;;7.10;99.90;;;;;;5050680;28;20219;-73
2022/11/25 03:20:15;;;;;;;6.32;3.35;;;7.10;99.90;;;;;;5051569;28;20036;-73
2022/11/25 03:22:42;;;;;;;8.80;3.30;;;7.10;99.90;;;;;;5050951;28;20052;-74
2022/11/25 03:25:08;;;;;;;5.55;3.20;;;7.10;99.90;;;;;;5051505;28;20136;-73
2022/11/25 03:27:35;;;;;;;5.82;3.50;;;7.00;99.90;;;;;;5050849;28;20029;-74
2022/11/25 03:30:00;;;;;;;7.40;3.13;;;7.00;99.90;;;;;;5051736;28;20079;-74
2022/11/25 03:32:26;;;;;;;5.57;3.22;;;7.00;99.90;;;;;;5051383;28;20064;-74
2022/11/25 03:34:52;;;;;;;6.43;3.05;;;7.00;99.90;;;;;;5050394;28;20060;-72
2022/11/25 03:37:18;;;;;;;6.40;2.90;;;7.00;99.90;;;;;;5051587;28;20040;-72
2022/11/25 03:39:44;;;;;;;10.45;3.33;;;7.00;99.90;;;;;;5051046;28;20025;-72
2022/11/25 03:42:10;;;;;;;8.57;3.40;;;7.00;99.90;;;;;;5051446;28;20033;-73
2022/11/25 03:44:35;;;;;;;5.25;2.90;;;7.00;99.90;;;;;;5054726;28;20025;-73
2022/11/25 03:47:01;;;;;;;6.05;3.10;;;7.00;99.90;;;;;;5054814;28;20033;-72
2022/11/25 03:49:26;;;;;;;6.35;2.90;;;7.00;99.90;;;;;;5054705;28;20051;-73
2022/11/25 03:51:52;;;;;;;6.35;2.83;;;6.90;99.90;;;;;;5054179;28;20104;-72
2022/11/25 03:54:18;;;;;;;5.43;2.65;;;6.90;99.90;;;;;;5054587;28;20036;-73
2022/11/25 03:56:43;;;;;;;5.20;2.72;;;6.90;99.90;;;;;;5054700;28;20036;-73
2022/11/25 03:59:09;;;;;;;6.35;3.47;;;6.90;99.90;;;;;;5053413;28;20558;-73
2022/11/25 04:01:35;;;;;;;4.88;2.95;;;6.90;99.90;;;;;;5054419;28;20029;-73
2022/11/25 04:04:00;;;;;;;3.58;2.42;;;6.90;99.90;;;;;;5053653;28;20057;-73
2022/11/25 04:06:26;;;;;;;4.70;2.20;;;6.90;99.90;;;;;;5054652;28;20154;-73
2022/11/25 04:08:52;;;;;;;5.43;2.55;;;6.90;99.90;;;;;;5054258;28;20056;-73
2022/11/25 04:11:17;;;;;;;4.28;2.53;;;7.00;99.90;;;;;;5054640;28;20041;-73
2022/11/25 04:13:43;;;;;;;5.07;2.33;;;7.00;99.90;;;;;;5054365;28;20036;-73
2022/11/25 04:16:25;;;;;;;5.97;2.40;;;7.00;99.90;;;;;;5054186;28;20025;-73
2022/11/25 04:18:50;;;;;;;5.03;2.63;;;7.00;99.90;;;;;;5054361;28;20044;-73
2022/11/25 04:21:16;;;;;;;4.00;2.58;;;7.00;99.90;;;;;;5054499;28;20373;-72
2022/11/25 04:23:41;;;;;;;7.47;2.70;;;7.00;99.90;;;;;;5053836;28;20021;-73
2022/11/25 04:26:07;;;;;;;5.38;2.70;;;7.00;99.90;;;;;;5054089;28;20122;-72
2022/11/25 04:28:33;;;;;;;3.22;2.15;;;7.00;99.90;;;;;;5053495;28;20493;-74
2022/11/25 04:30:58;;;;;;;4.88;2.20;;;7.00;99.90;;;;;;5053570;28;20065;-73
2022/11/25 04:33:24;;;;;;;7.60;2.63;;;6.90;99.90;;;;;;5054146;28;20373;-73
2022/11/25 04:35:50;;;;;;;6.80;2.42;;;6.90;99.90;;;;;;5052027;28;20103;-74
2022/11/25 04:38:15;;;;;;;5.93;2.88;;;6.90;99.90;;;;;;5053671;28;20025;-73
2022/11/25 04:40:41;;;;;;;9.32;3.13;;;6.90;99.90;;;;;;5053520;28;20021;-72
2022/11/25 04:43:07;;;;;;;6.68;2.53;;;6.90;99.90;;;;;;5054112;28;20028;-73
2022/11/25 04:45:33;;;;;;;5.15;2.45;;;6.80;99.90;;;;;;5053660;28;20037;-73
2022/11/25 04:47:58;;;;;;;6.35;2.58;;;6.80;99.90;;;;;;5053198;28;20148;-73
2022/11/25 04:50:24;;;;;;;5.30;2.38;;;6.80;99.90;;;;;;5053853;28;20438;-73
2022/11/25 04:52:50;;;;;;;8.48;3.03;;;6.80;99.90;;;;;;5053064;28;20461;-73
2022/11/25 04:55:15;;;;;;;4.80;2.45;;;6.70;99.90;;;;;;5053272;28;20044;-73
2022/11/25 04:57:41;;;;;;;7.03;2.50;;;6.70;99.90;;;;;;5053027;28;20052;-74
2022/11/25 05:00:08;;;;;;;7.00;2.17;;;6.70;99.90;;;;;;5053149;28;20111;-74
2022/11/25 05:02:34;;;;;;;11.13;2.72;;;6.70;99.90;;;;;;5053455;28;20083;-74
2022/11/25 05:04:59;;;;;;;8.63;2.63;;;6.70;99.90;;;;;;5052707;28;20052;-74
2022/11/25 05:07:27;;;;;;;5.13;2.88;;;6.60;99.90;;;;;;5052983;28;20025;-74
2022/11/25 05:09:53;;;;;;;5.15;2.80;;;6.60;99.90;;;;;;5052522;28;20025;-73
2022/11/25 05:12:21;;;;;;;5.80;2.70;;;6.60;99.90;;;;;;5053256;28;20025;-74
2022/11/25 05:14:48;;;;;;;8.82;3.38;;;6.60;99.90;;;;;;5052364;28;20143;-74
2022/11/25 05:17:18;;;;;;;8.52;2.75;;;6.60;99.90;;;;;;5052710;28;20037;-73
2022/11/25 05:19:44;;;;;;;6.90;2.88;;;6.50;99.90;;;;;;5052349;28;20079;-74
2022/11/25 05:22:16;;;;;;;7.97;2.97;;;6.50;99.90;;;;;;5053047;28;20040;-73
2022/11/25 05:24:42;;;;;;;6.80;2.83;;;6.50;99.90;;;;;;5052399;28;20033;-74
2022/11/25 05:27:09;;;;;;;9.88;2.67;;;6.50;99.90;;;;;;5052752;28;20033;-73
2022/11/25 05:29:34;;;;;;;8.75;3.30;;;6.40;99.90;;;;;;5052960;28;20108;-72
2022/11/25 05:32:00;;;;;;;6.97;3.30;;;6.40;99.90;;;;;;5052628;28;20426;-73
2022/11/25 05:34:26;;;;;;;8.52;3.30;;;6.40;99.90;;;;;;5052694;28;20032;-73
2022/11/25 05:36:52;;;;;;;10.65;2.95;;;6.40;99.90;;;;;;5052494;28;20474;-73
2022/11/25 05:39:17;;;;;;;6.65;2.72;;;6.30;99.90;;;;;;5052554;28;20029;-74
2022/11/25 05:41:43;;;;;;;5.32;2.45;;;6.40;99.90;;;;;;5052463;28;20079;-74
2022/11/25 05:44:09;;;;;;;7.28;2.28;;;6.40;99.90;;;;;;5052828;28;20102;-73
2022/11/25 05:46:35;;;;;;;10.63;2.95;;;6.40;99.90;;;;;;5052543;28;20071;-73
2022/11/25 05:49:00;;;;;;;9.40;2.65;;;6.40;99.90;;;;;;5051952;28;20025;-74
2022/11/25 05:51:27;;;;;;;7.60;3.00;;;6.40;99.90;;;;;;5052855;28;20025;-73
2022/11/25 05:53:53;;;;;;;7.30;2.10;;;6.40;99.90;;;;;;5051818;28;20082;-74
2022/11/25 05:56:19;;;;;;;10.88;2.90;;;6.30;99.90;;;;;;5052427;28;20048;-73
2022/11/25 05:58:45;;;;;;;7.10;2.65;;;6.30;99.90;;;;;;5052052;28;20025;-73
2022/11/25 06:01:13;;;;;;;6.25;2.85;;;6.30;99.90;;;;;;5052254;28;20049;-73
2022/11/25 06:03:39;;;;;;;5.70;2.83;;;6.30;99.90;;;;;;5052261;28;20055;-73
2022/11/25 06:06:06;;;;;;;5.78;2.67;;;6.30;99.90;;;;;;5051641;28;20131;-73
2022/11/25 06:08:33;;;;;;;7.90;3.30;;;6.20;99.90;;;;;;5052117;28;20036;-73
2022/11/25 06:10:59;;;;;;;6.43;2.63;;;6.20;99.90;;;;;;5050190;28;20059;-73
2022/11/25 06:13:24;;;;;;;7.97;2.80;;;6.20;99.90;;;;;;5052129;28;20048;-73
2022/11/25 06:15:50;;;;;;;9.23;3.10;;;6.20;99.90;;;;;;5051142;28;20040;-72
2022/11/25 06:18:17;;;;;;;6.22;2.38;;;6.20;99.90;;;;;;5052009;28;20029;-74
2022/11/25 06:20:43;;;;;;;4.47;2.88;;;6.20;99.90;;;;;;5050279;28;20025;-73
2022/11/25 06:23:09;;;;;;;4.63;2.55;;;6.30;99.90;;;;;;5052360;28;20365;-74
2022/11/25 06:25:35;;;;;;;8.23;2.92;;;6.30;99.90;;;;;;5050937;28;20037;-73
2022/11/25 06:28:02;;;;;;;9.07;3.10;;;6.30;99.90;;;;;;5051322;28;20532;-74
2022/11/25 06:30:28;;;;;;;9.05;3.33;;;6.30;99.90;;;;;;5052008;28;20078;-74
2022/11/25 06:32:54;;;;;;;5.75;2.85;;;6.30;99.90;;;;;;5051594;28;20052;-74
2022/11/25 06:35:20;;;;;;;10.65;3.65;;;6.20;99.90;;;;;;5051488;28;20489;-72
2022/11/25 06:37:46;;;;;;;7.82;3.70;;;6.20;99.90;;;;;;5051560;28;20025;-74
2022/11/25 06:40:12;;;;;;;10.18;3.50;;;6.20;99.90;;;;;;5051314;28;20028;-73
2022/11/25 06:42:38;;;;;;;8.80;3.67;;;6.20;99.90;;;;;;5051919;28;20446;-73
2022/11/25 06:45:05;;;;;;;8.40;3.60;;;6.20;99.90;;;;;;5051663;28;20086;-73
2022/11/25 06:47:31;;;;;;;8.27;3.83;;;6.20;99.90;;;;;;5051745;28;20030;-73
2022/11/25 06:49:57;;;;;;;7.75;3.58;;;6.20;99.90;;;;;;5050563;28;20381;-73
2022/11/25 06:52:23;;;;;;;11.77;4.05;;;6.20;99.90;;;;;;5051757;28;20025;-73
2022/11/25 06:54:50;;;;;;;15.35;4.75;;;6.20;99.90;;;;;;5051275;28;20032;-74
2022/11/25 06:57:17;;;;;;;7.00;4.43;;;6.20;99.90;;;;;;5051280;28;20478;-74
2022/11/25 06:59:43;;;;;;;35.17;20.63;;;6.20;99.90;;;;;;5051640;28;20083;-73
2022/11/25 07:02:11;;;;;;;25.58;10.23;;;6.20;99.90;;;;;;5051472;28;20053;-73
2022/11/25 07:04:36;;;;;;;14.70;6.63;;;6.20;99.90;;;;;;5051222;28;20116;-73
2022/11/25 07:07:02;;;;;;;16.45;6.20;;;6.20;99.90;;;;;;5051056;28;20147;-74
2022/11/25 07:09:29;;;;;;;17.77;5.32;;;6.20;99.90;;;;;;5056642;28;20036;-73
2022/11/25 07:11:54;;;;;;;11.38;5.57;;;6.20;99.90;;;;;;5070424;28;20028;-73
2022/11/25 07:14:20;;;;;;;12.63;5.28;;;6.20;99.90;;;;;;5050352;28;20055;-72
2022/11/25 07:16:46;;;;;;;13.95;5.15;;;6.30;99.90;;;;;;5051512;28;20112;-73
2022/11/25 07:19:14;;;;;;;14.25;5.28;;;6.30;99.90;;;;;;5054320;28;20049;-73
2022/11/25 07:21:40;;;;;;;16.65;5.35;;;6.30;99.90;;;;;;5055442;28;20112;-73
2022/11/25 07:24:07;;;;;;;14.35;5.47;;;6.30;99.90;;;;;;5054989;28;20376;-72
2022/11/25 07:26:36;;;;;;;14.80;5.07;;;6.30;99.90;;;;;;5053924;28;20033;-73
2022/11/25 07:29:05;;;;;;;14.32;5.43;;;6.40;99.90;;;;;;5054798;28;20112;-73
2022/11/25 07:31:37;;;;;;;11.05;5.00;;;6.40;99.90;;;;;;5055011;28;20071;-74
2022/11/25 07:34:13;;;;;;;13.05;5.22;;;6.50;99.90;;;;;;5054717;28;20025;-74
2022/11/25 07:36:39;;;;;;;10.82;4.57;;;6.50;99.90;;;;;;5054593;28;20084;-74
2022/11/25 07:39:08;;;;;;;13.10;4.85;;;6.60;99.90;;;;;;5054598;28;20488;-73
2022/11/25 07:41:34;;;;;;;11.00;4.63;;;6.60;99.90;;;;;;5054712;28;20025;-72
2022/11/25 07:44:02;;;;;;;11.65;5.13;;;6.60;99.90;;;;;;5054796;28;20032;-73
2022/11/25 07:46:36;;;;;;;7.43;4.40;;;6.90;99.90;;;;;;5054758;28;20033;-72
2022/11/25 07:49:08;;;;;;;9.63;3.95;;;7.00;99.90;;;;;;5054414;28;20075;-73
2022/11/25 07:51:40;;;;;;;7.63;4.10;;;7.10;99.90;;;;;;5054712;28;20112;-72
2022/11/25 07:54:09;;;;;;;11.07;4.30;;;7.20;99.90;;;;;;5054347;28;20029;-73
2022/11/25 07:56:37;;;;;;;9.65;4.43;;;7.30;99.90;;;;;;5051283;28;20033;-72
2022/11/25 07:59:04;;;;;;;13.13;4.88;;;7.40;99.90;;;;;;5053931;28;20025;-72
2022/11/25 08:01:30;;;;;;;12.13;4.20;;;7.50;99.90;;;;;;5054135;28;20029;-72
2022/11/25 08:03:55;;;;;;;11.30;4.90;;;7.50;99.90;;;;;;5054128;28;20101;-72
2022/11/25 08:06:37;;;;;;;11.05;4.95;;;7.60;99.90;;;;;;5054582;28;20041;-72
2022/11/25 08:09:02;;;;;;;;;;;7.60;99.90;;;;;;5054586;28;20113;-71
2022/11/25 08:11:29;;;;;;;7.05;3.88;;;7.70;99.90;;;;;;5054044;28;20308;-72
2022/11/25 08:13:56;;;;;;;9.07;3.33;;;7.80;99.90;;;;;;5052842;28;20047;-73
2022/11/25 08:16:25;;;;;;;7.70;3.10;;;7.80;99.90;;;;;;5053855;28;20064;-72
2022/11/25 08:18:50;;;;;;;11.32;4.03;;;7.80;99.90;;;;;;5053044;28;20381;-72
2022/11/25 08:21:17;;;;;;;11.38;3.47;;;7.90;99.90;;;;;;5053934;28;20104;-72
2022/11/25 08:23:46;;;;;;;12.35;3.45;;;7.90;99.90;;;;;;5053654;28;20029;-72
2022/11/25 08:26:15;;;;;;;11.23;3.63;;;8.00;99.90;;;;;;5053714;28;20417;-73
2022/11/25 08:28:41;;;;;;;7.15;3.30;;;8.00;99.90;;;;;;5053475;28;20036;-72
2022/11/25 08:31:10;;;;;;;8.63;3.00;;;8.10;99.90;;;;;;5053211;28;20025;-73
2022/11/25 08:33:36;;;;;;;8.23;3.17;;;8.10;99.90;;;;;;5052454;28;20024;-72
2022/11/25 08:36:03;;;;;;;14.30;4.10;;;8.10;99.90;;;;;;5053413;28;20051;-73
2022/11/25 08:38:29;;;;;;;8.63;2.92;;;8.20;99.90;;;;;;5053839;28;20414;-72
2022/11/25 08:40:55;;;;;;;13.85;3.00;;;8.20;99.90;;;;;;5053592;28;20096;-74
2022/11/25 08:43:21;;;;;;;8.02;3.28;;;8.20;99.90;;;;;;5053627;28;20033;-72
2022/11/25 08:45:48;;;;;;;13.25;4.00;;;8.20;99.90;;;;;;5053707;28;20089;-73
2022/11/25 08:48:15;;;;;;;10.27;3.17;;;8.30;99.90;;;;;;5053199;28;20036;-72
2022/11/25 08:50:47;;;;;;;11.48;3.30;;;8.30;99.90;;;;;;5053370;28;20040;-72
2022/11/25 08:53:13;;;;;;;10.02;3.10;;;8.30;99.90;;;;;;5053235;28;20029;-71
2022/11/25 08:55:39;;;;;;;9.65;3.58;;;8.30;99.90;;;;;;5053445;28;20032;-72
2022/11/25 08:58:08;;;;;;;9.98;2.92;;;8.40;99.90;;;;;;5053439;28;20396;-71
2022/11/25 09:00:35;;;;;;;5.32;2.92;;;8.40;99.90;;;;;;5053568;28;20133;-72
2022/11/25 09:03:01;;;;;;;8.80;2.70;;;8.40;99.90;;;;;;5052891;28;20063;-72
2022/11/25 09:05:27;;;;;;;9.98;3.22;;;8.40;99.90;;;;;;5053498;28;20055;-72
2022/11/25 09:07:53;;;;;;;10.85;3.80;;;8.50;99.90;;;;;;5053647;28;20028;-72
2022/11/25 09:10:18;;;;;;;10.10;3.00;;;8.50;99.90;;;;;;5052406;28;20025;-72
2022/11/25 09:12:44;;;;;;;8.27;3.13;;;8.50;99.90;;;;;;5053059;28;20020;-73
2022/11/25 09:15:10;;;;;;;10.40;3.47;;;8.50;99.90;;;;;;5052727;28;20486;-72
2022/11/25 09:17:36;;;;;;;8.57;3.65;;;8.50;99.90;;;;;;5053208;28;20103;-72
2022/11/25 09:20:04;;;;;;;7.95;3.13;;;8.60;99.90;;;;;;5052607;28;20029;-72
2022/11/25 09:22:30;;;;;;;8.65;3.17;;;8.60;99.90;;;;;;5052996;28;20083;-72
2022/11/25 09:24:56;;;;;;;10.48;2.95;;;8.70;99.90;;;;;;5052720;28;20112;-72
2022/11/25 09:27:22;;;;;;;8.95;2.58;;;8.70;99.90;;;;;;5052174;28;20071;-72
2022/11/25 09:29:47;;;;;;;10.88;2.80;;;8.80;99.90;;;;;;5053055;28;20051;-72
2022/11/25 09:32:13;;;;;;;13.27;4.18;;;8.90;99.90;;;;;;5052618;28;20030;-73
2022/11/25 09:34:39;;;;;;;11.75;3.30;;;9.00;99.90;;;;;;5052585;28;20132;-74
2022/11/25 09:37:04;;;;;;;12.05;3.05;;;9.10;99.90;;;;;;5052137;28;20421;-72
2022/11/25 09:39:31;;;;;;;10.45;3.08;;;9.20;99.90;;;;;;5052368;28;20025;-72
2022/11/25 09:49:10;;;;;;;6.82;2.88;;;9.90;99.90;;;;;;5052598;28;20039;-72
2022/11/25 09:52:05;;;;;;;9.75;3.42;;;10.10;99.90;;;;;;5042546;28;20033;-73
2022/11/25 09:54:35;;;;;;;7.47;2.70;;;10.30;99.90;;;;;;5051255;28;20025;-73
2022/11/25 09:57:14;;;;;;;10.70;3.70;;;10.60;99.90;;;;;;5052102;28;20033;-74
2022/11/25 09:59:59;;;;;;;13.75;3.58;;;10.80;99.90;;;;;;5052566;28;20025;-72
2022/11/25 10:02:38;;;;;;;10.35;2.90;;;11.00;99.90;;;;;;5052655;28;20025;-72
2022/11/25 10:05:12;;;;;;;11.88;3.53;;;11.10;98.30;;;;;;5051469;28;20025;-72
2022/11/25 10:07:50;;;;;;;8.73;3.50;;;11.30;99.00;;;;;;5052291;28;20035;-72
2022/11/25 10:10:26;;;;;;;8.02;3.42;;;11.50;97.50;;;;;;5052386;28;20037;-72
2022/11/25 10:12:54;;;;;;;9.45;3.20;;;11.60;96.50;;;;;;5052476;28;20082;-72
2022/11/25 10:15:40;;;;;;;7.38;3.05;;;11.70;94.40;;;;;;5051526;28;20036;-72
2022/11/25 10:18:30;;;;;;;10.63;3.53;;;11.80;93.90;;;;;;5050940;28;20072;-72
2022/11/25 10:20:56;;;;;;;12.52;3.15;;;11.90;92.10;;;;;;5052175;28;20485;-72
2022/11/25 10:23:32;;;;;;;14.23;3.25;;;12.10;92.10;;;;;;5051601;28;20029;-72
2022/11/25 10:26:02;;;;;;;9.93;3.35;;;12.20;91.90;;;;;;5052150;28;20025;-72
2022/11/25 10:28:31;;;;;;;8.50;3.10;;;12.40;90.30;;;;;;5052185;28;20021;-72
2022/11/25 10:31:05;;;;;;;7.95;2.95;;;12.50;90.80;;;;;;5052239;28;20136;-73
2022/11/25 10:33:36;;;;;;;8.02;3.03;;;12.60;90.30;;;;;;5051989;28;20040;-72
2022/11/25 10:36:22;;;;;;;8.50;3.05;;;12.90;89.00;;;;;;5051241;28;20524;-73
2022/11/25 10:38:50;;;;;;;10.27;3.40;;;13.00;90.10;;;;;;5052109;28;20056;-72
2022/11/25 10:41:20;;;;;;;10.75;3.70;;;13.30;89.90;;;;;;5051385;28;20036;-73
2022/11/25 10:43:47;;;;;;;10.32;3.05;;;13.30;89.40;;;;;;5051373;28;20029;-72
2022/11/25 10:46:52;;;;;;;6.07;2.83;;;13.40;87.50;;;;;;5051106;28;20037;-73
2022/11/25 10:49:24;;;;;;;7.28;2.70;;;13.50;88.70;;;;;;5040189;28;20056;-72
2022/11/25 10:51:50;;;;;;;10.77;2.70;;;13.60;86.10;;;;;;5052917;28;20029;-72
2022/11/25 10:54:24;;;;;;;6.63;2.42;;;13.60;85.50;;;;;;5055467;28;20114;-72
2022/11/25 10:56:58;;;;;;;5.15;2.70;;;13.70;85.20;;;;;;5055707;28;20037;-72
2022/11/25 10:59:35;;;;;;;10.95;3.10;;;13.70;84.70;;;;;;5055220;28;20032;-72
2022/11/25 11:02:15;;;;;;;7.10;2.53;;;13.60;82.30;;;;;;5055580;28;20024;-72
2022/11/25 11:05:09;;;;;;;9.30;3.00;;;13.70;83.00;;;;;;5055497;28;20477;-72
2022/11/25 11:07:40;;;;;;;5.30;2.60;;;13.70;84.30;;;;;;5055191;28;20059;-72
2022/11/25 11:10:25;;;;;;;6.72;2.60;;;13.70;82.50;;;;;;5054977;28;20048;-72
2022/11/25 11:13:16;;;;;;;9.93;2.78;;;13.80;81.40;;;;;;5055619;28;20108;-72
2022/11/25 11:15:42;;;;;;;9.00;3.85;;;13.80;80.40;;;;;;5055186;28;20090;-72
2022/11/25 11:18:38;;;;;;;12.57;2.85;;;13.80;79.80;;;;;;5054982;28;20029;-73
2022/11/25 11:21:06;;;;;;;6.57;2.40;;;13.80;80.70;;;;;;5052578;28;20041;-72
2022/11/25 11:23:49;;;;;;;7.75;2.47;;;13.90;80.60;;;;;;5055303;28;20021;-72
2022/11/25 11:26:23;;;;;;;9.77;3.10;;;13.90;80.60;;;;;;5055054;28;20462;-72
2022/11/25 11:29:12;;;;;;;9.50;2.95;;;14.00;81.40;;;;;;5055070;28;20067;-72
2022/11/25 11:31:44;;;;;;;10.30;2.65;;;14.10;79.00;;;;;;5055324;28;20488;-73
2022/11/25 11:34:28;;;;;;;10.05;2.90;;;14.00;79.60;;;;;;5054562;28;20469;-73
2022/11/25 11:37:15;;;;;;;7.80;3.50;;;14.00;78.40;;;;;;5054954;28;20036;-73
2022/11/25 11:40:11;;;;;;;10.52;2.50;;;14.00;78.40;;;;;;5055104;28;20029;-73
2022/11/25 11:42:51;;;;;;;7.68;2.92;;;14.00;78.40;;;;;;5051810;28;20059;-73
2022/11/25 11:45:23;;;;;;;11.50;2.50;;;14.00;77.50;;;;;;5055016;28;20049;-72
2022/11/25 11:48:04;;;;;;;7.38;2.55;;;13.90;77.20;;;;;;5054861;28;20025;-73
2022/11/25 11:50:45;;;;;;;6.40;2.33;;;13.80;78.30;;;;;;5054468;28;20108;-72
2022/11/25 11:53:43;;;;;;;5.93;2.22;;;13.70;78.20;;;;;;5054387;28;20044;-73
2022/11/25 11:56:13;;;;;;;5.72;2.13;;;13.60;77.70;;;;;;5051082;28;20067;-74
2022/11/25 11:58:57;;;;;;;4.07;1.87;;;13.50;78.40;;;;;;5054778;28;20057;-72
2022/11/25 12:02:01;;;;;;;9.18;2.30;;;13.50;79.80;;;;;;5054047;28;20265;-71
2022/11/25 12:04:42;;;;;;;9.38;2.35;;;13.40;79.40;;;;;;5053419;28;20029;-71
2022/11/25 12:07:17;;;;;;;5.82;2.40;;;13.30;80.00;;;;;;5054482;28;20036;-76
2022/11/25 12:10:09;;;;;;;11.00;2.63;;;13.20;80.60;;;;;;5054294;28;20382;-73
2022/11/25 12:12:42;;;;;;;8.55;2.40;;;13.10;80.00;;;;;;5054093;28;20028;-72
2022/11/25 12:15:36;;;;;;;9.55;2.63;;;13.00;81.00;;;;;;5053564;28;20100;-73
2022/11/25 12:18:23;;;;;;;7.25;2.33;;;13.00;81.60;;;;;;5034044;28;20359;-72
2022/11/25 12:20:52;;;;;;;6.03;2.38;;;13.00;80.70;;;;;;5034678;28;20066;-72
2022/11/25 12:23:28;;;;;;;11.85;3.22;;;13.10;81.40;;;;;;5033598;28;20474;-71
2022/11/25 12:26:00;;;;;;;6.68;2.58;;;13.10;81.70;;;;;;5034551;28;20041;-72
2022/11/25 12:28:36;;;;;;;8.45;2.58;;;13.20;82.10;;;;;;5033886;28;20112;-71
2022/11/25 12:31:04;;;;;;;7.53;2.78;;;13.30;81.40;;;;;;5033962;28;20032;-71
2022/11/25 12:34:00;;;;;;;8.52;3.10;;;13.40;81.80;;;;;;5033778;28;20682;-71
2022/11/25 12:36:38;;;;;;;9.55;3.15;;;13.40;80.00;;;;;;5033708;28;20398;-72
2022/11/25 12:39:23;;;;;;;11.23;3.17;;;13.50;80.10;;;;;;5033690;28;20463;-72
2022/11/25 12:42:04;;;;;;;8.35;3.15;;;13.50;79.20;;;;;;5033918;28;20022;-72
2022/11/25 12:44:56;;;;;;;12.88;3.13;;;13.50;78.50;;;;;;5033495;28;20033;-72
2022/11/25 12:47:21;;;;;;;9.90;3.35;;;13.50;79.00;;;;;;5033561;28;20120;-71
2022/11/25 12:49:49;;;;;;;8.63;3.00;;;13.50;78.90;;;;;;5033885;28;20107;-72
2022/11/25 12:52:21;;;;;;;10.55;3.50;;;13.40;78.30;;;;;;5033700;28;20025;-72
2022/11/25 12:55:18;;;;;;;8.07;2.90;;;13.30;78.80;;;;;;5033405;28;20032;-72
2022/11/25 12:58:20;;;;;;;14.23;3.83;;;13.20;78.80;;;;;;5033770;28;20090;-71
2022/11/25 13:01:00;;;;;;;;;;;13.10;78.40;;;;;;5033762;28;20363;-72
2022/11/25 13:03:44;;;;;;;6.30;2.78;;;13.10;79.50;;;;;;5033063;28;19905;-72
2022/11/25 13:06:29;;;;;;;11.57;3.10;;;13.10;80.20;;;;;;5033433;28;20103;-72
2022/11/25 13:09:13;;;;;;;9.80;2.55;;;13.00;80.60;;;;;;5033256;28;20056;-72
2022/11/25 13:12:01;;;;;;;7.63;2.42;;;13.00;80.30;;;;;;5050666;28;20025;-71
2022/11/25 13:15:04;;;;;;;9.40;2.28;;;12.90;80.10;;;;;;5052626;28;20029;-72
2022/11/25 13:17:36;;;;;;;10.15;2.25;;;12.80;79.80;;;;;;5051947;28;20119;-72
2022/11/25 13:20:26;;;;;;;9.25;2.28;;;12.70;80.10;;;;;;5052614;28;20380;-71